sensor_id;sensor_type;location;lat;lon;timestamp;temperature;humidity
68257;DHT22;55069;51.568;4.656;2022-09-03T00:01:53;18.05;53.03
68257;DHT22;55069;51.568;4.656;2022-09-03T00:07:16;17.99;53.24
68257;DHT22;55069;51.568;4.656;2022-09-03T00:09:55;17.89;53.45
68257;DHT22;55069;51.568;4.656;2022-09-03T00:12:26;17.85;53.48
68257;DHT22;55069;51.568;4.656;2022-09-03T00:14:59;17.81;53.76
68257;DHT22;55069;51.568;4.656;2022-09-03T00:18:04;17.72;54.01
68257;DHT22;55069;51.568;4.656;2022-09-03T00:20:35;17.72;53.99
68257;DHT22;55069;51.568;4.656;2022-09-03T00:23:05;17.66;54.31
68257;DHT22;55069;51.568;4.656;2022-09-03T00:28:03;17.58;54.67
68257;DHT22;55069;51.568;4.656;2022-09-03T00:30:31;17.57;54.60
68257;DHT22;55069;51.568;4.656;2022-09-03T00:33:16;17.51;54.54
68257;DHT22;55069;51.568;4.656;2022-09-03T00:35:51;17.47;55.01
68257;DHT22;55069;51.568;4.656;2022-09-03T00:38:18;17.45;54.86
68257;DHT22;55069;51.568;4.656;2022-09-03T00:41:08;17.38;55.00
68257;DHT22;55069;51.568;4.656;2022-09-03T00:43:49;17.38;55.29
68257;DHT22;55069;51.568;4.656;2022-09-03T00:46:30;17.32;55.14
68257;DHT22;55069;51.568;4.656;2022-09-03T00:52:23;17.27;55.11
68257;DHT22;55069;51.568;4.656;2022-09-03T00:57:36;17.23;55.52
68257;DHT22;55069;51.568;4.656;2022-09-03T01:00:16;17.21;55.48
68257;DHT22;55069;51.568;4.656;2022-09-03T01:14:04;17.09;55.51
68257;DHT22;55069;51.568;4.656;2022-09-03T01:16:46;17.04;55.61
68257;DHT22;55069;51.568;4.656;2022-09-03T01:22:30;16.96;56.03
68257;DHT22;55069;51.568;4.656;2022-09-03T01:30:41;16.90;56.17
68257;DHT22;55069;51.568;4.656;2022-09-03T01:38:35;16.80;56.84
68257;DHT22;55069;51.568;4.656;2022-09-03T01:46:39;16.68;57.01
68257;DHT22;55069;51.568;4.656;2022-09-03T01:49:54;16.65;57.38
68257;DHT22;55069;51.568;4.656;2022-09-03T01:52:12;16.61;56.69
68257;DHT22;55069;51.568;4.656;2022-09-03T02:00:09;16.51;57.58
68257;DHT22;55069;51.568;4.656;2022-09-03T02:02:39;16.48;57.66
68257;DHT22;55069;51.568;4.656;2022-09-03T02:10:18;16.40;57.83
68257;DHT22;55069;51.568;4.656;2022-09-03T02:12:50;16.40;57.29
68257;DHT22;55069;51.568;4.656;2022-09-03T02:15:20;16.38;57.67
68257;DHT22;55069;51.568;4.656;2022-09-03T02:17:48;16.32;58.00
68257;DHT22;55069;51.568;4.656;2022-09-03T02:20:19;16.29;58.04
68257;DHT22;55069;51.568;4.656;2022-09-03T02:22:46;16.26;58.30
68257;DHT22;55069;51.568;4.656;2022-09-03T02:25:13;16.22;58.58
68257;DHT22;55069;51.568;4.656;2022-09-03T02:27:38;16.15;58.43
68257;DHT22;55069;51.568;4.656;2022-09-03T02:30:05;16.14;57.88
68257;DHT22;55069;51.568;4.656;2022-09-03T02:32:31;16.13;58.73
68257;DHT22;55069;51.568;4.656;2022-09-03T02:34:57;16.14;58.51
68257;DHT22;55069;51.568;4.656;2022-09-03T02:37:23;16.05;58.80
68257;DHT22;55069;51.568;4.656;2022-09-03T02:39:49;16.05;58.76
68257;DHT22;55069;51.568;4.656;2022-09-03T02:42:16;16.03;59.16
68257;DHT22;55069;51.568;4.656;2022-09-03T02:45:26;15.98;58.97
68257;DHT22;55069;51.568;4.656;2022-09-03T02:47:51;15.96;58.94
68257;DHT22;55069;51.568;4.656;2022-09-03T02:50:18;15.89;59.31
68257;DHT22;55069;51.568;4.656;2022-09-03T02:52:43;15.87;59.49
68257;DHT22;55069;51.568;4.656;2022-09-03T02:55:09;15.77;59.53
68257;DHT22;55069;51.568;4.656;2022-09-03T02:57:34;15.80;59.59
68257;DHT22;55069;51.568;4.656;2022-09-03T03:00:00;15.83;59.41
68257;DHT22;55069;51.568;4.656;2022-09-03T03:02:25;15.79;60.08
68257;DHT22;55069;51.568;4.656;2022-09-03T03:04:51;15.77;59.92
68257;DHT22;55069;51.568;4.656;2022-09-03T03:07:17;15.74;59.46
68257;DHT22;55069;51.568;4.656;2022-09-03T03:09:42;15.69;59.73
68257;DHT22;55069;51.568;4.656;2022-09-03T03:12:08;15.67;59.76
68257;DHT22;55069;51.568;4.656;2022-09-03T03:14:34;15.69;59.70
68257;DHT22;55069;51.568;4.656;2022-09-03T03:16:59;15.66;59.73
68257;DHT22;55069;51.568;4.656;2022-09-03T03:19:25;15.60;59.86
68257;DHT22;55069;51.568;4.656;2022-09-03T03:21:50;15.59;59.98
68257;DHT22;55069;51.568;4.656;2022-09-03T03:24:16;15.59;59.83
68257;DHT22;55069;51.568;4.656;2022-09-03T03:26:41;15.56;59.96
68257;DHT22;55069;51.568;4.656;2022-09-03T03:29:13;15.50;60.55
68257;DHT22;55069;51.568;4.656;2022-09-03T03:31:39;15.59;59.54
68257;DHT22;55069;51.568;4.656;2022-09-03T03:34:05;15.50;60.02
68257;DHT22;55069;51.568;4.656;2022-09-03T03:36:32;15.48;60.34
68257;DHT22;55069;51.568;4.656;2022-09-03T03:38:58;15.48;60.00
68257;DHT22;55069;51.568;4.656;2022-09-03T03:41:29;15.46;60.35
68257;DHT22;55069;51.568;4.656;2022-09-03T03:44:03;15.43;60.47
68257;DHT22;55069;51.568;4.656;2022-09-03T03:46:34;15.42;59.77
68257;DHT22;55069;51.568;4.656;2022-09-03T03:49:00;15.39;60.63
68257;DHT22;55069;51.568;4.656;2022-09-03T03:51:27;15.34;60.80
68257;DHT22;55069;51.568;4.656;2022-09-03T03:53:54;15.34;60.23
68257;DHT22;55069;51.568;4.656;2022-09-03T03:56:21;15.32;60.66
68257;DHT22;55069;51.568;4.656;2022-09-03T03:58:46;15.34;60.23
68257;DHT22;55069;51.568;4.656;2022-09-03T04:01:17;15.29;60.39
68257;DHT22;55069;51.568;4.656;2022-09-03T04:03:43;15.24;61.42
68257;DHT22;55069;51.568;4.656;2022-09-03T04:06:12;15.24;60.80
68257;DHT22;55069;51.568;4.656;2022-09-03T04:08:39;15.24;61.02
68257;DHT22;55069;51.568;4.656;2022-09-03T04:11:07;15.18;61.22
68257;DHT22;55069;51.568;4.656;2022-09-03T04:13:36;15.17;61.25
68257;DHT22;55069;51.568;4.656;2022-09-03T04:16:04;15.17;60.82
68257;DHT22;55069;51.568;4.656;2022-09-03T04:18:30;15.15;61.08
68257;DHT22;55069;51.568;4.656;2022-09-03T04:21:00;15.11;60.39
68257;DHT22;55069;51.568;4.656;2022-09-03T04:23:32;15.12;60.90
68257;DHT22;55069;51.568;4.656;2022-09-03T04:25:58;15.11;61.16
68257;DHT22;55069;51.568;4.656;2022-09-03T04:28:24;15.09;61.67
68257;DHT22;55069;51.568;4.656;2022-09-03T04:30:50;15.05;61.27
68257;DHT22;55069;51.568;4.656;2022-09-03T04:33:15;15.08;61.04
68257;DHT22;55069;51.568;4.656;2022-09-03T04:35:41;15.02;61.30
68257;DHT22;55069;51.568;4.656;2022-09-03T04:38:07;15.00;61.80
68257;DHT22;55069;51.568;4.656;2022-09-03T04:40:33;15.00;61.71
68257;DHT22;55069;51.568;4.656;2022-09-03T04:42:59;15.00;60.95
68257;DHT22;55069;51.568;4.656;2022-09-03T04:45:25;15.01;60.89
68257;DHT22;55069;51.568;4.656;2022-09-03T04:48:03;14.94;61.51
68257;DHT22;55069;51.568;4.656;2022-09-03T04:50:31;14.95;61.16
68257;DHT22;55069;51.568;4.656;2022-09-03T04:53:02;14.94;61.81
68257;DHT22;55069;51.568;4.656;2022-09-03T04:55:32;14.88;62.16
68257;DHT22;55069;51.568;4.656;2022-09-03T04:57:59;14.92;62.05
68257;DHT22;55069;51.568;4.656;2022-09-03T05:00:25;14.90;62.29
68257;DHT22;55069;51.568;4.656;2022-09-03T05:02:50;14.92;62.61
68257;DHT22;55069;51.568;4.656;2022-09-03T05:05:16;14.88;61.50
68257;DHT22;55069;51.568;4.656;2022-09-03T05:07:43;14.91;61.78
68257;DHT22;55069;51.568;4.656;2022-09-03T05:10:11;14.94;61.75
68257;DHT22;55069;51.568;4.656;2022-09-03T05:12:37;14.91;62.28
68257;DHT22;55069;51.568;4.656;2022-09-03T05:15:04;14.95;61.35
68257;DHT22;55069;51.568;4.656;2022-09-03T05:17:30;15.00;61.68
68257;DHT22;55069;51.568;4.656;2022-09-03T05:19:56;15.07;62.06
68257;DHT22;55069;51.568;4.656;2022-09-03T05:22:22;15.17;61.00
68257;DHT22;55069;51.568;4.656;2022-09-03T05:24:48;15.27;61.33
68257;DHT22;55069;51.568;4.656;2022-09-03T05:27:15;15.39;60.70
68257;DHT22;55069;51.568;4.656;2022-09-03T05:29:43;15.49;60.91
68257;DHT22;55069;51.568;4.656;2022-09-03T05:32:10;15.56;60.75
68257;DHT22;55069;51.568;4.656;2022-09-03T05:34:37;15.65;60.65
68257;DHT22;55069;51.568;4.656;2022-09-03T05:37:02;15.69;60.71
68257;DHT22;55069;51.568;4.656;2022-09-03T05:39:28;15.74;60.34
68257;DHT22;55069;51.568;4.656;2022-09-03T05:41:54;15.76;59.51
68257;DHT22;55069;51.568;4.656;2022-09-03T05:44:19;15.80;60.20
68257;DHT22;55069;51.568;4.656;2022-09-03T05:46:48;15.84;60.25
68257;DHT22;55069;51.568;4.656;2022-09-03T05:49:14;15.82;60.09
68257;DHT22;55069;51.568;4.656;2022-09-03T05:51:40;15.83;60.28
68257;DHT22;55069;51.568;4.656;2022-09-03T05:54:07;15.79;60.52
68257;DHT22;55069;51.568;4.656;2022-09-03T05:56:34;15.80;60.26
68257;DHT22;55069;51.568;4.656;2022-09-03T05:59:02;15.80;59.90
68257;DHT22;55069;51.568;4.656;2022-09-03T06:01:38;15.76;59.61
68257;DHT22;55069;51.568;4.656;2022-09-03T06:04:07;15.74;61.21
68257;DHT22;55069;51.568;4.656;2022-09-03T06:06:35;15.74;60.15
68257;DHT22;55069;51.568;4.656;2022-09-03T06:09:03;15.73;61.18
68257;DHT22;55069;51.568;4.656;2022-09-03T06:11:30;15.79;60.02
68257;DHT22;55069;51.568;4.656;2022-09-03T06:13:58;15.77;61.49
68257;DHT22;55069;51.568;4.656;2022-09-03T06:16:27;15.82;61.73
68257;DHT22;55069;51.568;4.656;2022-09-03T06:18:53;15.83;60.87
68257;DHT22;55069;51.568;4.656;2022-09-03T06:21:21;15.90;61.26
68257;DHT22;55069;51.568;4.656;2022-09-03T06:23:52;15.89;60.09
68257;DHT22;55069;51.568;4.656;2022-09-03T06:26:18;15.94;61.42
68257;DHT22;55069;51.568;4.656;2022-09-03T06:28:45;16.00;61.18
68257;DHT22;55069;51.568;4.656;2022-09-03T06:31:15;16.08;60.60
68257;DHT22;55069;51.568;4.656;2022-09-03T06:33:42;16.13;60.62
68257;DHT22;55069;51.568;4.656;2022-09-03T06:36:10;16.20;60.99
68257;DHT22;55069;51.568;4.656;2022-09-03T06:38:37;16.25;61.11
68257;DHT22;55069;51.568;4.656;2022-09-03T06:41:05;16.31;61.53
68257;DHT22;55069;51.568;4.656;2022-09-03T06:43:33;16.45;60.45
68257;DHT22;55069;51.568;4.656;2022-09-03T06:46:02;16.55;60.30
68257;DHT22;55069;51.568;4.656;2022-09-03T06:48:30;16.63;60.15
68257;DHT22;55069;51.568;4.656;2022-09-03T06:51:10;16.73;59.88
68257;DHT22;55069;51.568;4.656;2022-09-03T06:53:41;16.83;59.75
68257;DHT22;55069;51.568;4.656;2022-09-03T06:56:10;17.02;58.74
68257;DHT22;55069;51.568;4.656;2022-09-03T06:58:38;17.16;59.08
68257;DHT22;55069;51.568;4.656;2022-09-03T07:01:07;17.27;58.38
68257;DHT22;55069;51.568;4.656;2022-09-03T07:03:34;17.44;57.77
68257;DHT22;55069;51.568;4.656;2022-09-03T07:06:05;17.62;57.41
68257;DHT22;55069;51.568;4.656;2022-09-03T07:08:31;17.85;57.35
68257;DHT22;55069;51.568;4.656;2022-09-03T07:11:02;18.03;57.33
68257;DHT22;55069;51.568;4.656;2022-09-03T07:13:37;18.26;57.01
68257;DHT22;55069;51.568;4.656;2022-09-03T07:16:07;18.43;55.83
68257;DHT22;55069;51.568;4.656;2022-09-03T07:18:33;18.65;55.21
68257;DHT22;55069;51.568;4.656;2022-09-03T07:21:00;18.84;55.35
68257;DHT22;55069;51.568;4.656;2022-09-03T07:23:27;18.98;54.10
68257;DHT22;55069;51.568;4.656;2022-09-03T07:25:57;19.10;53.31
68257;DHT22;55069;51.568;4.656;2022-09-03T07:28:24;19.20;54.83
68257;DHT22;55069;51.568;4.656;2022-09-03T07:30:53;19.27;53.71
68257;DHT22;55069;51.568;4.656;2022-09-03T07:33:19;19.39;54.19
68257;DHT22;55069;51.568;4.656;2022-09-03T07:35:46;19.51;54.20
68257;DHT22;55069;51.568;4.656;2022-09-03T07:38:16;19.53;52.87
68257;DHT22;55069;51.568;4.656;2022-09-03T07:40:42;19.64;53.40
68257;DHT22;55069;51.568;4.656;2022-09-03T07:43:08;19.66;53.40
68257;DHT22;55069;51.568;4.656;2022-09-03T07:45:34;19.77;52.73
68257;DHT22;55069;51.568;4.656;2022-09-03T07:48:00;19.92;52.15
68257;DHT22;55069;51.568;4.656;2022-09-03T07:50:25;20.11;52.82
68257;DHT22;55069;51.568;4.656;2022-09-03T07:52:57;20.15;52.86
68257;DHT22;55069;51.568;4.656;2022-09-03T07:55:24;20.28;51.91
68257;DHT22;55069;51.568;4.656;2022-09-03T07:57:55;20.37;51.50
68257;DHT22;55069;51.568;4.656;2022-09-03T08:00:20;20.59;52.28
68257;DHT22;55069;51.568;4.656;2022-09-03T08:02:46;20.69;50.87
68257;DHT22;55069;51.568;4.656;2022-09-03T08:05:12;20.79;51.64
68257;DHT22;55069;51.568;4.656;2022-09-03T08:07:38;20.71;51.44
68257;DHT22;55069;51.568;4.656;2022-09-03T08:10:04;20.88;51.12
68257;DHT22;55069;51.568;4.656;2022-09-03T08:12:30;20.91;50.47
68257;DHT22;55069;51.568;4.656;2022-09-03T08:14:57;21.09;50.87
68257;DHT22;55069;51.568;4.656;2022-09-03T08:17:23;21.11;49.85
68257;DHT22;55069;51.568;4.656;2022-09-03T08:19:48;21.24;49.91
68257;DHT22;55069;51.568;4.656;2022-09-03T08:22:15;21.28;49.11
68257;DHT22;55069;51.568;4.656;2022-09-03T08:24:40;21.39;49.33
68257;DHT22;55069;51.568;4.656;2022-09-03T08:27:07;21.63;49.73
68257;DHT22;55069;51.568;4.656;2022-09-03T08:29:33;21.63;48.97
68257;DHT22;55069;51.568;4.656;2022-09-03T08:31:58;21.87;47.92
68257;DHT22;55069;51.568;4.656;2022-09-03T08:34:24;21.89;47.73
68257;DHT22;55069;51.568;4.656;2022-09-03T08:36:50;22.05;47.76
68257;DHT22;55069;51.568;4.656;2022-09-03T08:39:18;22.21;47.16
68257;DHT22;55069;51.568;4.656;2022-09-03T08:47:10;22.69;46.83
68257;DHT22;55069;51.568;4.656;2022-09-03T08:49:46;22.82;48.19
68257;DHT22;55069;51.568;4.656;2022-09-03T08:55:28;23.06;46.41
68257;DHT22;55069;51.568;4.656;2022-09-03T08:58:14;23.17;45.05
68257;DHT22;55069;51.568;4.656;2022-09-03T09:00:47;23.43;45.13
68257;DHT22;55069;51.568;4.656;2022-09-03T09:06:25;23.40;44.52
68257;DHT22;55069;51.568;4.656;2022-09-03T09:13:04;23.10;44.89
68257;DHT22;55069;51.568;4.656;2022-09-03T09:23:00;23.62;45.10
68257;DHT22;55069;51.568;4.656;2022-09-03T09:25:27;23.40;45.06
68257;DHT22;55069;51.568;4.656;2022-09-03T09:27:59;23.68;45.78
68257;DHT22;55069;51.568;4.656;2022-09-03T09:30:28;23.83;44.26
68257;DHT22;55069;51.568;4.656;2022-09-03T09:32:54;23.93;45.01
68257;DHT22;55069;51.568;4.656;2022-09-03T09:35:21;24.06;43.30
68257;DHT22;55069;51.568;4.656;2022-09-03T09:37:48;24.26;43.64
68257;DHT22;55069;51.568;4.656;2022-09-03T09:42:49;24.89;41.82
68257;DHT22;55069;51.568;4.656;2022-09-03T09:45:16;25.01;42.50
68257;DHT22;55069;51.568;4.656;2022-09-03T09:47:41;25.18;41.74
68257;DHT22;55069;51.568;4.656;2022-09-03T09:50:20;25.25;41.80
68257;DHT22;55069;51.568;4.656;2022-09-03T09:52:46;25.05;42.23
68257;DHT22;55069;51.568;4.656;2022-09-03T09:55:20;25.20;42.00
68257;DHT22;55069;51.568;4.656;2022-09-03T09:57:52;25.25;42.01
68257;DHT22;55069;51.568;4.656;2022-09-03T10:00:18;25.30;42.47
68257;DHT22;55069;51.568;4.656;2022-09-03T10:02:52;25.66;41.88
68257;DHT22;55069;51.568;4.656;2022-09-03T10:05:26;25.85;42.61
68257;DHT22;55069;51.568;4.656;2022-09-03T10:08:01;26.00;40.77
68257;DHT22;55069;51.568;4.656;2022-09-03T10:10:28;25.90;41.36
68257;DHT22;55069;51.568;4.656;2022-09-03T10:13:10;26.09;41.60
68257;DHT22;55069;51.568;4.656;2022-09-03T10:16:18;26.02;39.98
68257;DHT22;55069;51.568;4.656;2022-09-03T10:18:42;26.25;41.53
68257;DHT22;55069;51.568;4.656;2022-09-03T10:21:15;26.17;40.97
68257;DHT22;55069;51.568;4.656;2022-09-03T10:26:40;26.42;39.76
68257;DHT22;55069;51.568;4.656;2022-09-03T10:29:07;26.56;39.62
68257;DHT22;55069;51.568;4.656;2022-09-03T10:36:54;26.24;39.75
68257;DHT22;55069;51.568;4.656;2022-09-03T10:42:50;26.26;39.81
68257;DHT22;55069;51.568;4.656;2022-09-03T10:51:04;26.69;39.91
68257;DHT22;55069;51.568;4.656;2022-09-03T10:56:12;26.40;39.47
68257;DHT22;55069;51.568;4.656;2022-09-03T11:01:40;26.59;39.59
68257;DHT22;55069;51.568;4.656;2022-09-03T11:04:24;26.61;39.52
68257;DHT22;55069;51.568;4.656;2022-09-03T11:07:06;26.77;40.12
68257;DHT22;55069;51.568;4.656;2022-09-03T11:09:45;27.04;39.36
68257;DHT22;55069;51.568;4.656;2022-09-03T11:12:44;27.35;37.38
68257;DHT22;55069;51.568;4.656;2022-09-03T11:15:19;27.14;37.21
68257;DHT22;55069;51.568;4.656;2022-09-03T11:17:53;27.07;38.20
68257;DHT22;55069;51.568;4.656;2022-09-03T11:20:25;27.17;38.15
68257;DHT22;55069;51.568;4.656;2022-09-03T11:22:54;27.48;37.69
68257;DHT22;55069;51.568;4.656;2022-09-03T11:25:23;27.30;37.16
68257;DHT22;55069;51.568;4.656;2022-09-03T11:33:27;27.46;38.06
68257;DHT22;55069;51.568;4.656;2022-09-03T11:35:58;27.45;38.33
68257;DHT22;55069;51.568;4.656;2022-09-03T11:38:28;27.52;37.55
68257;DHT22;55069;51.568;4.656;2022-09-03T11:41:23;27.56;37.31
68257;DHT22;55069;51.568;4.656;2022-09-03T11:43:51;27.61;37.22
68257;DHT22;55069;51.568;4.656;2022-09-03T11:48:49;27.88;39.14
68257;DHT22;55069;51.568;4.656;2022-09-03T11:56:45;27.97;36.86
68257;DHT22;55069;51.568;4.656;2022-09-03T12:01:58;28.07;36.14
68257;DHT22;55069;51.568;4.656;2022-09-03T12:04:34;28.14;36.74
68257;DHT22;55069;51.568;4.656;2022-09-03T12:18:06;28.31;35.83
68257;DHT22;55069;51.568;4.656;2022-09-03T12:20:46;28.44;37.30
68257;DHT22;55069;51.568;4.656;2022-09-03T12:23:24;28.44;35.98
68257;DHT22;55069;51.568;4.656;2022-09-03T12:25:51;28.44;35.62
68257;DHT22;55069;51.568;4.656;2022-09-03T12:28:20;28.34;36.72
68257;DHT22;55069;51.568;4.656;2022-09-03T12:30:50;28.33;36.56
68257;DHT22;55069;51.568;4.656;2022-09-03T12:33:18;28.40;35.97
68257;DHT22;55069;51.568;4.656;2022-09-03T12:35:57;28.48;36.86
68257;DHT22;55069;51.568;4.656;2022-09-03T12:38:24;28.82;36.11
68257;DHT22;55069;51.568;4.656;2022-09-03T12:40:50;28.92;36.29
68257;DHT22;55069;51.568;4.656;2022-09-03T12:43:17;28.82;35.65
68257;DHT22;55069;51.568;4.656;2022-09-03T12:45:48;28.75;36.15
68257;DHT22;55069;51.568;4.656;2022-09-03T12:48:17;28.80;35.91
68257;DHT22;55069;51.568;4.656;2022-09-03T12:50:44;28.91;35.40
68257;DHT22;55069;51.568;4.656;2022-09-03T12:53:13;28.74;36.02
68257;DHT22;55069;51.568;4.656;2022-09-03T12:55:56;28.80;35.75
68257;DHT22;55069;51.568;4.656;2022-09-03T12:58:48;28.95;35.53
68257;DHT22;55069;51.568;4.656;2022-09-03T13:01:20;28.86;35.20
68257;DHT22;55069;51.568;4.656;2022-09-03T13:03:53;28.40;35.49
68257;DHT22;55069;51.568;4.656;2022-09-03T13:06:30;28.82;36.66
68257;DHT22;55069;51.568;4.656;2022-09-03T13:09:03;29.06;36.15
68257;DHT22;55069;51.568;4.656;2022-09-03T13:11:34;29.03;35.29
68257;DHT22;55069;51.568;4.656;2022-09-03T13:14:13;29.22;35.02
68257;DHT22;55069;51.568;4.656;2022-09-03T13:16:48;29.34;35.36
68257;DHT22;55069;51.568;4.656;2022-09-03T13:22:17;29.38;34.71
68257;DHT22;55069;51.568;4.656;2022-09-03T13:25:15;29.47;34.57
68257;DHT22;55069;51.568;4.656;2022-09-03T13:28:28;29.34;35.02
68257;DHT22;55069;51.568;4.656;2022-09-03T13:31:06;29.30;34.50
68257;DHT22;55069;51.568;4.656;2022-09-03T13:33:40;29.03;34.41
68257;DHT22;55069;51.568;4.656;2022-09-03T13:38:42;29.20;35.46
68257;DHT22;55069;51.568;4.656;2022-09-03T13:41:24;29.16;34.76
68257;DHT22;55069;51.568;4.656;2022-09-03T13:47:56;29.26;37.09
68257;DHT22;55069;51.568;4.656;2022-09-03T13:49:55;29.34;35.86
68257;DHT22;55069;51.568;4.656;2022-09-03T13:52:53;29.38;35.83
68257;DHT22;55069;51.568;4.656;2022-09-03T13:55:43;29.37;35.82
68257;DHT22;55069;51.568;4.656;2022-09-03T13:58:33;29.44;35.53
68257;DHT22;55069;51.568;4.656;2022-09-03T14:01:24;29.24;35.01
68257;DHT22;55069;51.568;4.656;2022-09-03T14:03:54;29.16;33.96
68257;DHT22;55069;51.568;4.656;2022-09-03T14:06:48;29.37;36.30
68257;DHT22;55069;51.568;4.656;2022-09-03T14:09:19;29.50;35.09
68257;DHT22;55069;51.568;4.656;2022-09-03T14:11:53;29.84;35.21
68257;DHT22;55069;51.568;4.656;2022-09-03T14:15:07;29.85;35.59
68257;DHT22;55069;51.568;4.656;2022-09-03T14:25:59;30.43;33.92
68257;DHT22;55069;51.568;4.656;2022-09-03T14:28:33;30.28;34.57
68257;DHT22;55069;51.568;4.656;2022-09-03T14:31:18;30.16;34.91
68257;DHT22;55069;51.568;4.656;2022-09-03T14:33:54;30.12;34.34
68257;DHT22;55069;51.568;4.656;2022-09-03T14:39:35;30.05;34.62
68257;DHT22;55069;51.568;4.656;2022-09-03T14:58:48;30.41;37.17
68257;DHT22;55069;51.568;4.656;2022-09-03T15:01:17;30.61;34.89
68257;DHT22;55069;51.568;4.656;2022-09-03T15:11:52;29.42;36.96
68257;DHT22;55069;51.568;4.656;2022-09-03T15:14:25;29.46;36.03
68257;DHT22;55069;51.568;4.656;2022-09-03T15:17:01;29.49;37.64
68257;DHT22;55069;51.568;4.656;2022-09-03T15:19:55;29.64;38.04
68257;DHT22;55069;51.568;4.656;2022-09-03T15:25:41;29.64;38.48
68257;DHT22;55069;51.568;4.656;2022-09-03T15:28:37;29.75;38.62
68257;DHT22;55069;51.568;4.656;2022-09-03T15:36:17;29.81;35.78
68257;DHT22;55069;51.568;4.656;2022-09-03T15:39:01;30.01;35.36
68257;DHT22;55069;51.568;4.656;2022-09-03T15:41:45;29.97;37.00
68257;DHT22;55069;51.568;4.656;2022-09-03T15:44:14;29.77;37.47
68257;DHT22;55069;51.568;4.656;2022-09-03T15:49:26;29.30;38.65
68257;DHT22;55069;51.568;4.656;2022-09-03T15:55:05;28.96;40.85
68257;DHT22;55069;51.568;4.656;2022-09-03T15:57:44;29.00;41.03
68257;DHT22;55069;51.568;4.656;2022-09-03T16:00:16;28.95;39.60
68257;DHT22;55069;51.568;4.656;2022-09-03T16:02:58;28.98;39.41
68257;DHT22;55069;51.568;4.656;2022-09-03T16:05:48;28.89;38.96
68257;DHT22;55069;51.568;4.656;2022-09-03T16:08:38;29.02;40.24
68257;DHT22;55069;51.568;4.656;2022-09-03T16:11:15;29.10;40.23
68257;DHT22;55069;51.568;4.656;2022-09-03T16:19:33;29.49;38.59
68257;DHT22;55069;51.568;4.656;2022-09-03T16:22:11;29.53;38.77
68257;DHT22;55069;51.568;4.656;2022-09-03T16:24:46;29.51;38.39
68257;DHT22;55069;51.568;4.656;2022-09-03T16:27:21;29.74;38.07
68257;DHT22;55069;51.568;4.656;2022-09-03T16:30:02;30.50;37.98
68257;DHT22;55069;51.568;4.656;2022-09-03T16:32:57;30.74;36.03
68257;DHT22;55069;51.568;4.656;2022-09-03T16:43:45;30.52;35.11
68257;DHT22;55069;51.568;4.656;2022-09-03T16:49:57;30.06;37.21
68257;DHT22;55069;51.568;4.656;2022-09-03T16:52:54;29.95;36.84
68257;DHT22;55069;51.568;4.656;2022-09-03T16:58:09;29.44;37.09
68257;DHT22;55069;51.568;4.656;2022-09-03T17:03:42;29.24;39.48
68257;DHT22;55069;51.568;4.656;2022-09-03T17:37:04;26.53;43.46
68257;DHT22;55069;51.568;4.656;2022-09-03T17:48:35;26.09;44.41
68257;DHT22;55069;51.568;4.656;2022-09-03T17:51:16;26.04;46.00
68257;DHT22;55069;51.568;4.656;2022-09-03T17:53:53;25.92;45.06
68257;DHT22;55069;51.568;4.656;2022-09-03T17:56:26;25.85;44.88
68257;DHT22;55069;51.568;4.656;2022-09-03T17:59:02;25.78;45.48
68257;DHT22;55069;51.568;4.656;2022-09-03T18:01:34;25.83;46.18
68257;DHT22;55069;51.568;4.656;2022-09-03T18:04:15;25.80;44.82
68257;DHT22;55069;51.568;4.656;2022-09-03T18:12:31;25.84;46.52
68257;DHT22;55069;51.568;4.656;2022-09-03T18:15:06;25.78;45.97
68257;DHT22;55069;51.568;4.656;2022-09-03T18:18:01;25.62;45.01
68257;DHT22;55069;51.568;4.656;2022-09-03T18:20:31;25.49;46.10
68257;DHT22;55069;51.568;4.656;2022-09-03T18:23:33;25.47;46.92
68257;DHT22;55069;51.568;4.656;2022-09-03T18:26:28;25.49;46.98
68257;DHT22;55069;51.568;4.656;2022-09-03T18:29:35;25.39;47.46
68257;DHT22;55069;51.568;4.656;2022-09-03T18:32:20;25.39;47.51
68257;DHT22;55069;51.568;4.656;2022-09-03T18:35:07;25.42;47.79
68257;DHT22;55069;51.568;4.656;2022-09-03T18:37:51;25.40;47.79
68257;DHT22;55069;51.568;4.656;2022-09-03T18:40:45;25.39;47.84
68257;DHT22;55069;51.568;4.656;2022-09-03T18:43:46;25.33;47.72
68257;DHT22;55069;51.568;4.656;2022-09-03T18:49:31;25.35;47.83
68257;DHT22;55069;51.568;4.656;2022-09-03T18:52:49;25.29;47.88
68257;DHT22;55069;51.568;4.656;2022-09-03T19:02:13;25.16;48.58
68257;DHT22;55069;51.568;4.656;2022-09-03T19:05:18;24.89;49.42
68257;DHT22;55069;51.568;4.656;2022-09-03T19:11:09;24.87;50.93
68257;DHT22;55069;51.568;4.656;2022-09-03T19:14:08;24.74;52.36
68257;DHT22;55069;51.568;4.656;2022-09-03T19:17:22;24.67;53.16
68257;DHT22;55069;51.568;4.656;2022-09-03T19:20:16;24.53;54.14
68257;DHT22;55069;51.568;4.656;2022-09-03T19:23:02;24.33;56.56
68257;DHT22;55069;51.568;4.656;2022-09-03T19:25:46;24.36;55.35
68257;DHT22;55069;51.568;4.656;2022-09-03T19:28:35;24.22;56.78
68257;DHT22;55069;51.568;4.656;2022-09-03T19:31:44;24.24;57.50
68257;DHT22;55069;51.568;4.656;2022-09-03T19:34:57;24.22;56.55
68257;DHT22;55069;51.568;4.656;2022-09-03T19:47:11;24.10;59.26
68257;DHT22;55069;51.568;4.656;2022-09-03T19:50:32;24.08;57.59
68257;DHT22;55069;51.568;4.656;2022-09-03T19:53:20;24.05;57.18
68257;DHT22;55069;51.568;4.656;2022-09-03T19:56:19;23.99;57.57
68257;DHT22;55069;51.568;4.656;2022-09-03T19:59:11;23.98;57.80
68257;DHT22;55069;51.568;4.656;2022-09-03T20:01:56;23.96;58.08
68257;DHT22;55069;51.568;4.656;2022-09-03T20:04:55;23.88;60.67
68257;DHT22;55069;51.568;4.656;2022-09-03T20:07:40;23.76;60.05
68257;DHT22;55069;51.568;4.656;2022-09-03T20:10:26;23.64;60.16
68257;DHT22;55069;51.568;4.656;2022-09-03T20:15:22;23.58;59.30
68257;DHT22;55069;51.568;4.656;2022-09-03T20:23:17;23.54;62.39
68257;DHT22;55069;51.568;4.656;2022-09-03T20:26:15;23.40;64.31
68257;DHT22;55069;51.568;4.656;2022-09-03T20:31:36;23.28;63.38
68257;DHT22;55069;51.568;4.656;2022-09-03T20:36:56;23.18;64.23
68257;DHT22;55069;51.568;4.656;2022-09-03T20:39:46;22.99;64.02
68257;DHT22;55069;51.568;4.656;2022-09-03T20:42:37;22.93;65.20
68257;DHT22;55069;51.568;4.656;2022-09-03T20:50:53;22.96;64.94
68257;DHT22;55069;51.568;4.656;2022-09-03T20:56:31;22.93;65.79
68257;DHT22;55069;51.568;4.656;2022-09-03T21:01:50;22.82;66.01
68257;DHT22;55069;51.568;4.656;2022-09-03T21:04:47;22.61;67.94
68257;DHT22;55069;51.568;4.656;2022-09-03T21:07:19;22.62;65.64
68257;DHT22;55069;51.568;4.656;2022-09-03T21:10:22;22.68;66.12
68257;DHT22;55069;51.568;4.656;2022-09-03T21:12:57;22.66;66.35
68257;DHT22;55069;51.568;4.656;2022-09-03T21:15:44;22.66;66.47
68257;DHT22;55069;51.568;4.656;2022-09-03T21:23:42;22.53;68.17